Norton, TX (76865)

1:26 AM CST on January 18, 2017 (GMT -0600)
West of Lake Winters | | Change Station

Elev 1834 ft 31.96 °N, 99.88 °W | Updated 2 seconds ago

Overcast
Overcast
45.1 °F
Feels Like 44 °F
N
3.4
Wind Variable Wind from NNE
Gusts 4.9 mph

Today
High -- | Low -- °F
--% Chance of Precip.
Yesterday
High -- | Low -- °F
Precip. -- in
Pressure 30.15 in
Visibility 10.0 miles
Clouds Overcast 400 ft
Windchill 44 °F
Dew Point 44 °F
Humidity 97%
Rainfall 0.00 in
Snow Depth Not available.
7:40 AM 6:02 PM
Waning Gibbous, 65% visible
METAR KDYS 180658Z 36005KT 10SM OVC004 06/05 A3015 RMK AO2A CIG 004V009 SLP210 $
Pressure 30.15 in
Visibility 10.0 miles
Clouds Overcast 400 ft
Windchill 44 °F
Dew Point 44 °F
Humidity 97%
Rainfall 0.00 in
Snow Depth Not available.
7:40 AM 6:02 PM
Waning Gibbous, 65% visible
METAR KDYS 180658Z 36005KT 10SM OVC004 06/05 A3015 RMK AO2A CIG 004V009 SLP210 $

Get Your Daily Forecast Email!

Thanks for signing up!

Be on the lookout for a verification email in your inbox.

You'll start receiving the daily forecast at 8 AM.

×

10-Day Weather Forecast

Almanac

Astronomy

Jan. 18, 2017 Rise Set
Actual Time
Civil Twilight
Nautical Twilight
Astronomical Twilight
Moon
Length of Visible Light
Length of Day
Tomorrow will be .
, % of the Moon is Illuminated

Today's Extremes

State Highs State Lows

Community

WunderPhotos

Upload Photos

1,962,540 photos uploaded!

WunderBlog® & News

Nearby

Air Quality

  Air Quality AQ Index Pollutant
Not available.

Snow Depth

Station Depth Elevation

Earthquake Activity

City Distance Mag. Time & Date
Minimum magnitude displayed is 2.5.

Coastal Water Temperatures

Place Temperature

Stations

Nearby Weather Stations

Station Location Temp. Windchill Dew Point Humidity Wind Precip. Elev Updated Type
                   

Watches & Warnings

There are currently no watches in effect.